sensor_id;sensor_type;location;lat;lon;timestamp;P1;durP1;ratioP1;P2;durP2;ratioP2
48263;SDS011;34086;51.076;13.722;2022-07-23T00:00:31;4.97;;;4.47;;
48263;SDS011;34086;51.076;13.722;2022-07-23T00:01:31;6.78;;;4.70;;
48263;SDS011;34086;51.076;13.722;2022-07-23T00:02:32;5.05;;;4.35;;
48263;SDS011;34086;51.076;13.722;2022-07-23T00:03:33;4.90;;;4.50;;
48263;SDS011;34086;51.076;13.722;2022-07-23T00:04:33;5.15;;;4.50;;
48263;SDS011;34086;51.076;13.722;2022-07-23T00:05:34;5.78;;;5.00;;
48263;SDS011;34086;51.076;13.722;2022-07-23T00:06:35;5.95;;;5.28;;
48263;SDS011;34086;51.076;13.722;2022-07-23T00:07:36;5.60;;;5.03;;
48263;SDS011;34086;51.076;13.722;2022-07-23T00:08:37;5.03;;;4.57;;
48263;SDS011;34086;51.076;13.722;2022-07-23T00:09:38;5.03;;;4.57;;
48263;SDS011;34086;51.076;13.722;2022-07-23T00:10:38;5.43;;;4.72;;
48263;SDS011;34086;51.076;13.722;2022-07-23T00:11:39;5.50;;;4.95;;
48263;SDS011;34086;51.076;13.722;2022-07-23T00:12:40;5.35;;;4.53;;
48263;SDS011;34086;51.076;13.722;2022-07-23T00:13:41;9.90;;;5.20;;
48263;SDS011;34086;51.076;13.722;2022-07-23T00:14:42;12.25;;;5.50;;
48263;SDS011;34086;51.076;13.722;2022-07-23T00:15:42;7.00;;;5.32;;
48263;SDS011;34086;51.076;13.722;2022-07-23T00:16:43;8.30;;;5.35;;
48263;SDS011;34086;51.076;13.722;2022-07-23T00:17:44;8.43;;;4.97;;
48263;SDS011;34086;51.076;13.722;2022-07-23T00:18:44;7.97;;;5.40;;
48263;SDS011;34086;51.076;13.722;2022-07-23T00:19:45;8.73;;;5.38;;
48263;SDS011;34086;51.076;13.722;2022-07-23T00:20:46;10.60;;;5.07;;
48263;SDS011;34086;51.076;13.722;2022-07-23T00:21:47;13.25;;;5.80;;
48263;SDS011;34086;51.076;13.722;2022-07-23T00:22:51;13.63;;;5.80;;
48263;SDS011;34086;51.076;13.722;2022-07-23T00:23:53;10.95;;;5.70;;
48263;SDS011;34086;51.076;13.722;2022-07-23T00:24:54;16.08;;;6.28;;
48263;SDS011;34086;51.076;13.722;2022-07-23T00:25:55;11.77;;;5.57;;
48263;SDS011;34086;51.076;13.722;2022-07-23T00:26:56;9.10;;;5.50;;
48263;SDS011;34086;51.076;13.722;2022-07-23T00:27:57;7.40;;;5.80;;
48263;SDS011;34086;51.076;13.722;2022-07-23T00:28:59;7.28;;;5.70;;
48263;SDS011;34086;51.076;13.722;2022-07-23T00:30:00;7.45;;;5.68;;
48263;SDS011;34086;51.076;13.722;2022-07-23T00:31:00;7.28;;;5.75;;
48263;SDS011;34086;51.076;13.722;2022-07-23T00:32:01;7.00;;;5.85;;
48263;SDS011;34086;51.076;13.722;2022-07-23T00:33:03;5.90;;;5.40;;
48263;SDS011;34086;51.076;13.722;2022-07-23T00:34:05;6.47;;;5.85;;
48263;SDS011;34086;51.076;13.722;2022-07-23T00:35:06;6.22;;;5.65;;
48263;SDS011;34086;51.076;13.722;2022-07-23T00:36:07;6.53;;;5.93;;
48263;SDS011;34086;51.076;13.722;2022-07-23T00:37:08;6.05;;;5.53;;
48263;SDS011;34086;51.076;13.722;2022-07-23T00:38:09;7.10;;;5.78;;
48263;SDS011;34086;51.076;13.722;2022-07-23T00:39:11;6.15;;;5.65;;
48263;SDS011;34086;51.076;13.722;2022-07-23T00:40:12;6.55;;;5.68;;
48263;SDS011;34086;51.076;13.722;2022-07-23T00:41:13;6.40;;;5.70;;
48263;SDS011;34086;51.076;13.722;2022-07-23T00:42:13;6.68;;;5.97;;
48263;SDS011;34086;51.076;13.722;2022-07-23T00:43:14;6.10;;;5.53;;
48263;SDS011;34086;51.076;13.722;2022-07-23T00:44:17;7.18;;;5.55;;
48263;SDS011;34086;51.076;13.722;2022-07-23T00:45:20;9.38;;;5.70;;
48263;SDS011;34086;51.076;13.722;2022-07-23T00:46:21;7.00;;;6.30;;
48263;SDS011;34086;51.076;13.722;2022-07-23T00:47:22;7.78;;;6.20;;
48263;SDS011;34086;51.076;13.722;2022-07-23T00:48:23;6.40;;;5.80;;
48263;SDS011;34086;51.076;13.722;2022-07-23T00:49:26;6.13;;;5.53;;
48263;SDS011;34086;51.076;13.722;2022-07-23T00:50:28;6.30;;;5.70;;
48263;SDS011;34086;51.076;13.722;2022-07-23T00:51:29;6.55;;;5.88;;
48263;SDS011;34086;51.076;13.722;2022-07-23T00:52:30;7.28;;;5.45;;
48263;SDS011;34086;51.076;13.722;2022-07-23T00:53:32;6.30;;;5.70;;
48263;SDS011;34086;51.076;13.722;2022-07-23T00:54:33;5.85;;;5.35;;
48263;SDS011;34086;51.076;13.722;2022-07-23T00:55:34;6.28;;;5.68;;
48263;SDS011;34086;51.076;13.722;2022-07-23T00:56:35;6.20;;;5.60;;
48263;SDS011;34086;51.076;13.722;2022-07-23T00:57:36;6.10;;;5.50;;
48263;SDS011;34086;51.076;13.722;2022-07-23T00:58:38;6.63;;;5.85;;
48263;SDS011;34086;51.076;13.722;2022-07-23T00:59:42;6.32;;;5.80;;
48263;SDS011;34086;51.076;13.722;2022-07-23T01:00:43;6.40;;;5.80;;
48263;SDS011;34086;51.076;13.722;2022-07-23T01:01:44;6.10;;;5.50;;
48263;SDS011;34086;51.076;13.722;2022-07-23T01:02:46;6.20;;;5.70;;
48263;SDS011;34086;51.076;13.722;2022-07-23T01:03:47;6.03;;;5.53;;
48263;SDS011;34086;51.076;13.722;2022-07-23T01:04:48;6.18;;;5.68;;
48263;SDS011;34086;51.076;13.722;2022-07-23T01:05:49;6.25;;;5.75;;
48263;SDS011;34086;51.076;13.722;2022-07-23T01:06:49;6.07;;;5.57;;
48263;SDS011;34086;51.076;13.722;2022-07-23T01:07:50;6.03;;;5.53;;
48263;SDS011;34086;51.076;13.722;2022-07-23T01:08:53;6.88;;;6.22;;
48263;SDS011;34086;51.076;13.722;2022-07-23T01:09:54;6.75;;;6.15;;
48263;SDS011;34086;51.076;13.722;2022-07-23T01:10:55;6.68;;;6.07;;
48263;SDS011;34086;51.076;13.722;2022-07-23T01:11:56;6.40;;;5.90;;
48263;SDS011;34086;51.076;13.722;2022-07-23T01:12:59;6.68;;;5.93;;
48263;SDS011;34086;51.076;13.722;2022-07-23T01:14:11;6.32;;;5.72;;
48263;SDS011;34086;51.076;13.722;2022-07-23T01:15:13;6.80;;;6.20;;
48263;SDS011;34086;51.076;13.722;2022-07-23T01:16:13;6.32;;;5.70;;
48263;SDS011;34086;51.076;13.722;2022-07-23T01:17:14;6.57;;;5.97;;
48263;SDS011;34086;51.076;13.722;2022-07-23T01:18:15;6.13;;;5.63;;
48263;SDS011;34086;51.076;13.722;2022-07-23T01:19:16;6.80;;;6.20;;
48263;SDS011;34086;51.076;13.722;2022-07-23T01:20:17;6.22;;;5.72;;
48263;SDS011;34086;51.076;13.722;2022-07-23T01:21:19;7.18;;;6.47;;
48263;SDS011;34086;51.076;13.722;2022-07-23T01:22:20;7.63;;;6.40;;
48263;SDS011;34086;51.076;13.722;2022-07-23T01:23:21;6.43;;;5.82;;
48263;SDS011;34086;51.076;13.722;2022-07-23T01:24:27;6.43;;;5.82;;
48263;SDS011;34086;51.076;13.722;2022-07-23T01:25:34;6.72;;;6.00;;
48263;SDS011;34086;51.076;13.722;2022-07-23T01:26:36;6.10;;;5.60;;
48263;SDS011;34086;51.076;13.722;2022-07-23T01:27:38;7.28;;;6.55;;
48263;SDS011;34086;51.076;13.722;2022-07-23T01:28:38;7.05;;;5.95;;
48263;SDS011;34086;51.076;13.722;2022-07-23T01:29:41;6.63;;;6.00;;
48263;SDS011;34086;51.076;13.722;2022-07-23T01:30:48;6.60;;;6.00;;
48263;SDS011;34086;51.076;13.722;2022-07-23T01:31:49;6.97;;;6.10;;
48263;SDS011;34086;51.076;13.722;2022-07-23T01:32:49;6.03;;;5.53;;
48263;SDS011;34086;51.076;13.722;2022-07-23T01:33:50;6.20;;;5.60;;
48263;SDS011;34086;51.076;13.722;2022-07-23T01:34:51;6.50;;;6.00;;
48263;SDS011;34086;51.076;13.722;2022-07-23T01:35:52;6.47;;;5.97;;
48263;SDS011;34086;51.076;13.722;2022-07-23T01:36:56;5.90;;;5.40;;
48263;SDS011;34086;51.076;13.722;2022-07-23T01:37:57;6.30;;;5.70;;
48263;SDS011;34086;51.076;13.722;2022-07-23T01:38:58;7.88;;;6.00;;
48263;SDS011;34086;51.076;13.722;2022-07-23T01:39:58;6.25;;;5.75;;
48263;SDS011;34086;51.076;13.722;2022-07-23T01:40:59;6.00;;;5.50;;
48263;SDS011;34086;51.076;13.722;2022-07-23T01:42:04;6.07;;;5.47;;
48263;SDS011;34086;51.076;13.722;2022-07-23T01:43:06;7.82;;;6.10;;
48263;SDS011;34086;51.076;13.722;2022-07-23T01:44:08;6.65;;;6.05;;
48263;SDS011;34086;51.076;13.722;2022-07-23T01:45:10;6.45;;;5.93;;
48263;SDS011;34086;51.076;13.722;2022-07-23T01:46:15;6.05;;;5.55;;
48263;SDS011;34086;51.076;13.722;2022-07-23T01:47:20;6.10;;;5.50;;
48263;SDS011;34086;51.076;13.722;2022-07-23T01:48:24;6.32;;;5.82;;
48263;SDS011;34086;51.076;13.722;2022-07-23T01:49:45;6.90;;;6.30;;
48263;SDS011;34086;51.076;13.722;2022-07-23T01:51:21;6.82;;;6.13;;
48263;SDS011;34086;51.076;13.722;2022-07-23T01:52:55;7.65;;;6.00;;
48263;SDS011;34086;51.076;13.722;2022-07-23T01:53:55;6.70;;;6.10;;
48263;SDS011;34086;51.076;13.722;2022-07-23T01:54:56;6.25;;;5.72;;
48263;SDS011;34086;51.076;13.722;2022-07-23T01:55:57;6.97;;;6.28;;
48263;SDS011;34086;51.076;13.722;2022-07-23T01:56:58;6.93;;;6.32;;
48263;SDS011;34086;51.076;13.722;2022-07-23T01:57:59;6.82;;;6.03;;
48263;SDS011;34086;51.076;13.722;2022-07-23T01:59:03;7.53;;;6.20;;
48263;SDS011;34086;51.076;13.722;2022-07-23T02:00:04;6.40;;;5.88;;
48263;SDS011;34086;51.076;13.722;2022-07-23T02:01:13;6.40;;;5.90;;
48263;SDS011;34086;51.076;13.722;2022-07-23T02:02:13;6.75;;;6.25;;
48263;SDS011;34086;51.076;13.722;2022-07-23T02:03:14;6.75;;;6.15;;
48263;SDS011;34086;51.076;13.722;2022-07-23T02:04:15;6.82;;;6.20;;
48263;SDS011;34086;51.076;13.722;2022-07-23T02:05:15;6.57;;;6.05;;
48263;SDS011;34086;51.076;13.722;2022-07-23T02:06:18;6.32;;;5.82;;
48263;SDS011;34086;51.076;13.722;2022-07-23T02:07:23;6.68;;;6.07;;
48263;SDS011;34086;51.076;13.722;2022-07-23T02:08:25;6.03;;;5.43;;
48263;SDS011;34086;51.076;13.722;2022-07-23T02:09:26;6.32;;;5.82;;
48263;SDS011;34086;51.076;13.722;2022-07-23T02:10:27;7.30;;;6.65;;
48263;SDS011;34086;51.076;13.722;2022-07-23T02:11:28;7.25;;;6.55;;
48263;SDS011;34086;51.076;13.722;2022-07-23T02:12:28;6.80;;;6.20;;
48263;SDS011;34086;51.076;13.722;2022-07-23T02:13:29;6.68;;;6.07;;
48263;SDS011;34086;51.076;13.722;2022-07-23T02:14:30;6.55;;;5.95;;
48263;SDS011;34086;51.076;13.722;2022-07-23T02:15:31;6.70;;;6.10;;
48263;SDS011;34086;51.076;13.722;2022-07-23T02:16:32;7.22;;;6.63;;
48263;SDS011;34086;51.076;13.722;2022-07-23T02:17:36;7.10;;;6.50;;
48263;SDS011;34086;51.076;13.722;2022-07-23T02:18:37;6.88;;;6.28;;
48263;SDS011;34086;51.076;13.722;2022-07-23T02:19:38;6.28;;;5.68;;
48263;SDS011;34086;51.076;13.722;2022-07-23T02:20:38;7.10;;;5.90;;
48263;SDS011;34086;51.076;13.722;2022-07-23T02:21:41;6.60;;;6.00;;
48263;SDS011;34086;51.076;13.722;2022-07-23T02:22:42;7.15;;;6.45;;
48263;SDS011;34086;51.076;13.722;2022-07-23T02:23:43;6.97;;;6.38;;
48263;SDS011;34086;51.076;13.722;2022-07-23T02:24:47;6.70;;;6.10;;
48263;SDS011;34086;51.076;13.722;2022-07-23T02:25:48;6.75;;;6.05;;
48263;SDS011;34086;51.076;13.722;2022-07-23T02:26:49;6.10;;;5.60;;
48263;SDS011;34086;51.076;13.722;2022-07-23T02:27:50;6.70;;;6.03;;
48263;SDS011;34086;51.076;13.722;2022-07-23T02:28:50;6.65;;;6.00;;
48263;SDS011;34086;51.076;13.722;2022-07-23T02:29:53;6.40;;;5.75;;
48263;SDS011;34086;51.076;13.722;2022-07-23T02:30:54;6.30;;;5.80;;
48263;SDS011;34086;51.076;13.722;2022-07-23T02:31:55;6.80;;;6.20;;
48263;SDS011;34086;51.076;13.722;2022-07-23T02:32:56;6.47;;;5.97;;
48263;SDS011;34086;51.076;13.722;2022-07-23T02:33:58;6.05;;;5.55;;
48263;SDS011;34086;51.076;13.722;2022-07-23T02:35:00;6.30;;;5.80;;
48263;SDS011;34086;51.076;13.722;2022-07-23T02:36:02;6.20;;;5.70;;
48263;SDS011;34086;51.076;13.722;2022-07-23T02:37:05;6.53;;;5.93;;
48263;SDS011;34086;51.076;13.722;2022-07-23T02:38:13;6.00;;;5.50;;
48263;SDS011;34086;51.076;13.722;2022-07-23T02:39:14;6.38;;;5.85;;
48263;SDS011;34086;51.076;13.722;2022-07-23T02:40:15;6.80;;;6.20;;
48263;SDS011;34086;51.076;13.722;2022-07-23T02:42:54;6.70;;;6.10;;
48263;SDS011;34086;51.076;13.722;2022-07-23T02:44:02;6.22;;;5.65;;
48263;SDS011;34086;51.076;13.722;2022-07-23T02:45:15;6.28;;;5.78;;
48263;SDS011;34086;51.076;13.722;2022-07-23T02:46:17;6.63;;;6.03;;
48263;SDS011;34086;51.076;13.722;2022-07-23T02:47:27;6.95;;;6.25;;
48263;SDS011;34086;51.076;13.722;2022-07-23T02:48:33;7.00;;;6.30;;
48263;SDS011;34086;51.076;13.722;2022-07-23T02:49:48;7.93;;;6.65;;
48263;SDS011;34086;51.076;13.722;2022-07-23T02:51:21;6.68;;;6.10;;
48263;SDS011;34086;51.076;13.722;2022-07-23T02:52:35;7.97;;;6.85;;
48263;SDS011;34086;51.076;13.722;2022-07-23T02:53:58;6.63;;;5.97;;
48263;SDS011;34086;51.076;13.722;2022-07-23T02:55:12;7.30;;;6.63;;
48263;SDS011;34086;51.076;13.722;2022-07-23T02:56:13;7.50;;;6.80;;
48263;SDS011;34086;51.076;13.722;2022-07-23T02:57:27;6.97;;;6.38;;
48263;SDS011;34086;51.076;13.722;2022-07-23T02:58:38;6.50;;;6.00;;
48263;SDS011;34086;51.076;13.722;2022-07-23T02:59:45;6.78;;;6.22;;
48263;SDS011;34086;51.076;13.722;2022-07-23T03:00:53;7.90;;;6.28;;
48263;SDS011;34086;51.076;13.722;2022-07-23T03:02:14;7.20;;;6.50;;
48263;SDS011;34086;51.076;13.722;2022-07-23T03:04:40;6.88;;;6.10;;
48263;SDS011;34086;51.076;13.722;2022-07-23T03:05:48;7.10;;;6.50;;
48263;SDS011;34086;51.076;13.722;2022-07-23T03:06:52;7.32;;;6.63;;
48263;SDS011;34086;51.076;13.722;2022-07-23T03:08:27;6.88;;;6.28;;
48263;SDS011;34086;51.076;13.722;2022-07-23T03:11:12;6.70;;;6.10;;
48263;SDS011;34086;51.076;13.722;2022-07-23T03:12:16;7.30;;;6.63;;
48263;SDS011;34086;51.076;13.722;2022-07-23T03:13:20;6.93;;;6.20;;
48263;SDS011;34086;51.076;13.722;2022-07-23T03:14:24;7.35;;;6.00;;
48263;SDS011;34086;51.076;13.722;2022-07-23T03:15:24;6.80;;;6.20;;
48263;SDS011;34086;51.076;13.722;2022-07-23T03:16:25;6.80;;;6.20;;
48263;SDS011;34086;51.076;13.722;2022-07-23T03:17:29;6.65;;;6.10;;
48263;SDS011;34086;51.076;13.722;2022-07-23T03:18:36;6.63;;;6.00;;
48263;SDS011;34086;51.076;13.722;2022-07-23T03:19:38;6.75;;;6.15;;
48263;SDS011;34086;51.076;13.722;2022-07-23T03:20:42;7.07;;;6.47;;
48263;SDS011;34086;51.076;13.722;2022-07-23T03:21:44;6.43;;;5.82;;
48263;SDS011;34086;51.076;13.722;2022-07-23T03:22:46;6.75;;;6.15;;
48263;SDS011;34086;51.076;13.722;2022-07-23T03:23:47;6.68;;;6.10;;
48263;SDS011;34086;51.076;13.722;2022-07-23T03:24:48;6.85;;;6.20;;
48263;SDS011;34086;51.076;13.722;2022-07-23T03:25:57;7.20;;;6.50;;
48263;SDS011;34086;51.076;13.722;2022-07-23T03:26:58;6.75;;;6.15;;
48263;SDS011;34086;51.076;13.722;2022-07-23T03:27:59;6.63;;;6.03;;
48263;SDS011;34086;51.076;13.722;2022-07-23T03:29:02;7.05;;;6.45;;
48263;SDS011;34086;51.076;13.722;2022-07-23T03:30:07;6.38;;;5.78;;
48263;SDS011;34086;51.076;13.722;2022-07-23T03:31:09;6.60;;;6.00;;
48263;SDS011;34086;51.076;13.722;2022-07-23T03:32:12;6.32;;;5.82;;
48263;SDS011;34086;51.076;13.722;2022-07-23T03:33:13;8.15;;;6.00;;
48263;SDS011;34086;51.076;13.722;2022-07-23T03:34:16;7.00;;;6.10;;
48263;SDS011;34086;51.076;13.722;2022-07-23T03:35:18;6.53;;;6.00;;
48263;SDS011;34086;51.076;13.722;2022-07-23T03:36:31;7.20;;;6.50;;
48263;SDS011;34086;51.076;13.722;2022-07-23T03:37:32;6.82;;;6.22;;
48263;SDS011;34086;51.076;13.722;2022-07-23T03:38:33;6.70;;;5.97;;
48263;SDS011;34086;51.076;13.722;2022-07-23T03:39:34;7.95;;;6.30;;
48263;SDS011;34086;51.076;13.722;2022-07-23T03:40:35;6.35;;;5.85;;
48263;SDS011;34086;51.076;13.722;2022-07-23T03:41:36;7.88;;;6.20;;
48263;SDS011;34086;51.076;13.722;2022-07-23T03:42:37;6.65;;;6.05;;
48263;SDS011;34086;51.076;13.722;2022-07-23T03:43:42;7.40;;;6.70;;
48263;SDS011;34086;51.076;13.722;2022-07-23T03:44:45;10.45;;;6.35;;
48263;SDS011;34086;51.076;13.722;2022-07-23T03:45:48;8.48;;;6.28;;
48263;SDS011;34086;51.076;13.722;2022-07-23T03:46:49;7.38;;;6.68;;
48263;SDS011;34086;51.076;13.722;2022-07-23T03:47:50;7.55;;;6.32;;
48263;SDS011;34086;51.076;13.722;2022-07-23T03:48:51;8.05;;;6.90;;
48263;SDS011;34086;51.076;13.722;2022-07-23T03:49:52;7.90;;;6.88;;
48263;SDS011;34086;51.076;13.722;2022-07-23T03:50:53;7.20;;;6.50;;
48263;SDS011;34086;51.076;13.722;2022-07-23T03:51:53;7.13;;;6.43;;
48263;SDS011;34086;51.076;13.722;2022-07-23T03:52:54;7.43;;;6.72;;
48263;SDS011;34086;51.076;13.722;2022-07-23T03:53:55;9.20;;;6.63;;
48263;SDS011;34086;51.076;13.722;2022-07-23T03:54:56;8.13;;;6.80;;
48263;SDS011;34086;51.076;13.722;2022-07-23T03:55:59;8.07;;;6.90;;
48263;SDS011;34086;51.076;13.722;2022-07-23T03:57:04;7.70;;;6.88;;
48263;SDS011;34086;51.076;13.722;2022-07-23T03:58:05;7.20;;;6.55;;
48263;SDS011;34086;51.076;13.722;2022-07-23T03:59:06;7.15;;;6.45;;
48263;SDS011;34086;51.076;13.722;2022-07-23T04:00:07;7.13;;;6.50;;
48263;SDS011;34086;51.076;13.722;2022-07-23T04:01:13;7.80;;;7.20;;
48263;SDS011;34086;51.076;13.722;2022-07-23T04:02:14;7.65;;;6.93;;
48263;SDS011;34086;51.076;13.722;2022-07-23T04:03:15;7.22;;;6.63;;
48263;SDS011;34086;51.076;13.722;2022-07-23T04:04:22;7.72;;;7.03;;
48263;SDS011;34086;51.076;13.722;2022-07-23T04:05:23;7.43;;;6.72;;
48263;SDS011;34086;51.076;13.722;2022-07-23T04:06:30;7.55;;;6.75;;
48263;SDS011;34086;51.076;13.722;2022-07-23T04:07:33;7.95;;;7.15;;
48263;SDS011;34086;51.076;13.722;2022-07-23T04:08:37;7.75;;;6.95;;
48263;SDS011;34086;51.076;13.722;2022-07-23T04:09:38;7.07;;;6.47;;
48263;SDS011;34086;51.076;13.722;2022-07-23T04:10:42;7.30;;;6.70;;
48263;SDS011;34086;51.076;13.722;2022-07-23T04:11:44;7.15;;;6.55;;
48263;SDS011;34086;51.076;13.722;2022-07-23T04:12:45;7.20;;;6.50;;
48263;SDS011;34086;51.076;13.722;2022-07-23T04:13:46;7.63;;;6.95;;
48263;SDS011;34086;51.076;13.722;2022-07-23T04:14:47;7.50;;;6.80;;
48263;SDS011;34086;51.076;13.722;2022-07-23T04:15:51;9.15;;;7.35;;
48263;SDS011;34086;51.076;13.722;2022-07-23T04:16:52;7.75;;;7.10;;
48263;SDS011;34086;51.076;13.722;2022-07-23T04:17:54;7.57;;;6.88;;
48263;SDS011;34086;51.076;13.722;2022-07-23T04:18:59;9.18;;;7.32;;
48263;SDS011;34086;51.076;13.722;2022-07-23T04:20:03;7.70;;;7.05;;
48263;SDS011;34086;51.076;13.722;2022-07-23T04:21:11;8.02;;;7.32;;
48263;SDS011;34086;51.076;13.722;2022-07-23T04:22:22;8.60;;;7.57;;
48263;SDS011;34086;51.076;13.722;2022-07-23T04:23:23;8.65;;;7.50;;
48263;SDS011;34086;51.076;13.722;2022-07-23T04:24:24;8.15;;;7.35;;
48263;SDS011;34086;51.076;13.722;2022-07-23T04:25:25;8.07;;;7.38;;
48263;SDS011;34086;51.076;13.722;2022-07-23T04:26:25;7.97;;;7.28;;
48263;SDS011;34086;51.076;13.722;2022-07-23T04:27:26;8.77;;;7.88;;
48263;SDS011;34086;51.076;13.722;2022-07-23T04:28:27;8.18;;;7.40;;
48263;SDS011;34086;51.076;13.722;2022-07-23T04:29:28;8.18;;;7.15;;
48263;SDS011;34086;51.076;13.722;2022-07-23T04:30:29;8.70;;;7.63;;
48263;SDS011;34086;51.076;13.722;2022-07-23T04:31:33;7.65;;;7.05;;
48263;SDS011;34086;51.076;13.722;2022-07-23T04:32:34;9.15;;;7.63;;
48263;SDS011;34086;51.076;13.722;2022-07-23T04:33:41;9.73;;;8.25;;
48263;SDS011;34086;51.076;13.722;2022-07-23T04:34:43;8.27;;;7.22;;
48263;SDS011;34086;51.076;13.722;2022-07-23T04:35:47;7.75;;;7.00;;
48263;SDS011;34086;51.076;13.722;2022-07-23T04:36:53;8.05;;;7.35;;
48263;SDS011;34086;51.076;13.722;2022-07-23T04:37:54;7.70;;;7.00;;
48263;SDS011;34086;51.076;13.722;2022-07-23T04:38:55;9.85;;;7.90;;
48263;SDS011;34086;51.076;13.722;2022-07-23T04:39:56;8.65;;;7.70;;
48263;SDS011;34086;51.076;13.722;2022-07-23T04:41:06;7.78;;;6.97;;
48263;SDS011;34086;51.076;13.722;2022-07-23T04:42:07;7.82;;;7.07;;
48263;SDS011;34086;51.076;13.722;2022-07-23T04:43:08;8.43;;;7.60;;
48263;SDS011;34086;51.076;13.722;2022-07-23T04:44:15;8.18;;;7.38;;
48263;SDS011;34086;51.076;13.722;2022-07-23T04:45:16;7.93;;;7.22;;
48263;SDS011;34086;51.076;13.722;2022-07-23T04:46:18;8.73;;;7.40;;
48263;SDS011;34086;51.076;13.722;2022-07-23T04:47:22;8.73;;;7.28;;
48263;SDS011;34086;51.076;13.722;2022-07-23T04:48:24;7.28;;;6.50;;
48263;SDS011;34086;51.076;13.722;2022-07-23T04:49:32;7.43;;;6.72;;
48263;SDS011;34086;51.076;13.722;2022-07-23T04:50:33;7.15;;;6.55;;
48263;SDS011;34086;51.076;13.722;2022-07-23T04:51:38;7.00;;;6.40;;
48263;SDS011;34086;51.076;13.722;2022-07-23T04:52:42;7.78;;;6.90;;
48263;SDS011;34086;51.076;13.722;2022-07-23T04:53:43;7.40;;;6.43;;
48263;SDS011;34086;51.076;13.722;2022-07-23T04:54:47;7.60;;;6.78;;
48263;SDS011;34086;51.076;13.722;2022-07-23T04:55:48;10.55;;;7.50;;
48263;SDS011;34086;51.076;13.722;2022-07-23T04:56:48;7.18;;;6.55;;
48263;SDS011;34086;51.076;13.722;2022-07-23T04:57:49;6.90;;;6.30;;
48263;SDS011;34086;51.076;13.722;2022-07-23T04:58:50;7.10;;;6.40;;
48263;SDS011;34086;51.076;13.722;2022-07-23T04:59:51;7.03;;;6.35;;
48263;SDS011;34086;51.076;13.722;2022-07-23T05:00:51;7.45;;;6.65;;
48263;SDS011;34086;51.076;13.722;2022-07-23T05:01:52;6.97;;;6.28;;
48263;SDS011;34086;51.076;13.722;2022-07-23T05:02:53;6.55;;;5.95;;
48263;SDS011;34086;51.076;13.722;2022-07-23T05:03:54;7.13;;;6.13;;
48263;SDS011;34086;51.076;13.722;2022-07-23T05:04:55;7.10;;;6.40;;
48263;SDS011;34086;51.076;13.722;2022-07-23T05:05:56;6.88;;;6.18;;
48263;SDS011;34086;51.076;13.722;2022-07-23T05:06:57;8.25;;;6.45;;
48263;SDS011;34086;51.076;13.722;2022-07-23T05:07:59;8.52;;;7.15;;
48263;SDS011;34086;51.076;13.722;2022-07-23T05:09:01;7.20;;;6.50;;
48263;SDS011;34086;51.076;13.722;2022-07-23T05:10:03;7.18;;;6.50;;
48263;SDS011;34086;51.076;13.722;2022-07-23T05:11:04;7.25;;;6.50;;
48263;SDS011;34086;51.076;13.722;2022-07-23T05:12:05;7.50;;;6.57;;
48263;SDS011;34086;51.076;13.722;2022-07-23T05:13:07;6.60;;;5.97;;
48263;SDS011;34086;51.076;13.722;2022-07-23T05:14:08;7.15;;;6.45;;
48263;SDS011;34086;51.076;13.722;2022-07-23T05:15:12;7.22;;;6.53;;
48263;SDS011;34086;51.076;13.722;2022-07-23T05:16:13;9.70;;;6.55;;
48263;SDS011;34086;51.076;13.722;2022-07-23T05:17:14;8.07;;;6.68;;
48263;SDS011;34086;51.076;13.722;2022-07-23T05:18:14;7.20;;;6.50;;
48263;SDS011;34086;51.076;13.722;2022-07-23T05:19:16;7.60;;;6.90;;
48263;SDS011;34086;51.076;13.722;2022-07-23T05:20:16;7.35;;;6.65;;
48263;SDS011;34086;51.076;13.722;2022-07-23T05:21:17;8.13;;;7.15;;
48263;SDS011;34086;51.076;13.722;2022-07-23T05:22:18;7.70;;;6.80;;
48263;SDS011;34086;51.076;13.722;2022-07-23T05:23:19;7.88;;;6.75;;
48263;SDS011;34086;51.076;13.722;2022-07-23T05:24:21;7.70;;;6.50;;
48263;SDS011;34086;51.076;13.722;2022-07-23T05:25:23;7.72;;;6.82;;
48263;SDS011;34086;51.076;13.722;2022-07-23T05:26:23;8.52;;;7.00;;
48263;SDS011;34086;51.076;13.722;2022-07-23T05:27:24;7.30;;;6.60;;
48263;SDS011;34086;51.076;13.722;2022-07-23T05:28:25;7.45;;;6.75;;
48263;SDS011;34086;51.076;13.722;2022-07-23T05:29:27;7.72;;;6.68;;
48263;SDS011;34086;51.076;13.722;2022-07-23T05:30:28;7.65;;;6.80;;
48263;SDS011;34086;51.076;13.722;2022-07-23T05:31:33;6.68;;;6.07;;
48263;SDS011;34086;51.076;13.722;2022-07-23T05:32:34;7.80;;;6.50;;
48263;SDS011;34086;51.076;13.722;2022-07-23T05:33:45;7.13;;;6.50;;
48263;SDS011;34086;51.076;13.722;2022-07-23T05:34:46;8.23;;;6.43;;
48263;SDS011;34086;51.076;13.722;2022-07-23T05:35:46;7.50;;;6.45;;
48263;SDS011;34086;51.076;13.722;2022-07-23T05:37:13;7.72;;;6.50;;
48263;SDS011;34086;51.076;13.722;2022-07-23T05:38:14;6.55;;;5.85;;
48263;SDS011;34086;51.076;13.722;2022-07-23T05:39:15;6.93;;;6.32;;
48263;SDS011;34086;51.076;13.722;2022-07-23T05:40:17;6.70;;;6.00;;
48263;SDS011;34086;51.076;13.722;2022-07-23T05:41:17;7.53;;;6.55;;
48263;SDS011;34086;51.076;13.722;2022-07-23T05:42:18;8.45;;;7.03;;
48263;SDS011;34086;51.076;13.722;2022-07-23T05:43:19;9.00;;;7.45;;
48263;SDS011;34086;51.076;13.722;2022-07-23T05:44:20;8.02;;;6.90;;
48263;SDS011;34086;51.076;13.722;2022-07-23T05:45:20;7.38;;;6.20;;
48263;SDS011;34086;51.076;13.722;2022-07-23T05:46:21;10.93;;;6.40;;
48263;SDS011;34086;51.076;13.722;2022-07-23T05:47:26;9.23;;;6.68;;
48263;SDS011;34086;51.076;13.722;2022-07-23T05:48:27;9.13;;;6.55;;
48263;SDS011;34086;51.076;13.722;2022-07-23T05:49:36;6.70;;;6.00;;
48263;SDS011;34086;51.076;13.722;2022-07-23T05:50:38;7.22;;;6.50;;
48263;SDS011;34086;51.076;13.722;2022-07-23T05:51:57;6.65;;;5.93;;
48263;SDS011;34086;51.076;13.722;2022-07-23T05:53:08;7.85;;;6.10;;
48263;SDS011;34086;51.076;13.722;2022-07-23T05:54:41;7.70;;;6.68;;
48263;SDS011;34086;51.076;13.722;2022-07-23T05:55:41;6.80;;;6.10;;
48263;SDS011;34086;51.076;13.722;2022-07-23T05:56:42;7.10;;;6.10;;
48263;SDS011;34086;51.076;13.722;2022-07-23T05:57:43;6.82;;;6.20;;
48263;SDS011;34086;51.076;13.722;2022-07-23T05:58:44;8.13;;;6.50;;
48263;SDS011;34086;51.076;13.722;2022-07-23T05:59:46;7.10;;;6.10;;
48263;SDS011;34086;51.076;13.722;2022-07-23T06:00:47;7.85;;;6.32;;
48263;SDS011;34086;51.076;13.722;2022-07-23T06:01:47;8.68;;;6.47;;
48263;SDS011;34086;51.076;13.722;2022-07-23T06:02:49;7.30;;;6.60;;
48263;SDS011;34086;51.076;13.722;2022-07-23T06:03:50;8.88;;;7.07;;
48263;SDS011;34086;51.076;13.722;2022-07-23T06:04:51;8.23;;;7.35;;
48263;SDS011;34086;51.076;13.722;2022-07-23T06:06:05;11.00;;;7.97;;
48263;SDS011;34086;51.076;13.722;2022-07-23T06:07:06;8.82;;;7.65;;
48263;SDS011;34086;51.076;13.722;2022-07-23T06:08:09;10.75;;;7.88;;
48263;SDS011;34086;51.076;13.722;2022-07-23T06:09:10;10.02;;;8.13;;
48263;SDS011;34086;51.076;13.722;2022-07-23T06:10:14;8.38;;;7.50;;
48263;SDS011;34086;51.076;13.722;2022-07-23T06:11:15;8.35;;;7.40;;
48263;SDS011;34086;51.076;13.722;2022-07-23T06:12:16;10.05;;;7.78;;
48263;SDS011;34086;51.076;13.722;2022-07-23T06:13:17;9.25;;;7.75;;
48263;SDS011;34086;51.076;13.722;2022-07-23T06:14:19;7.90;;;7.10;;
48263;SDS011;34086;51.076;13.722;2022-07-23T06:15:29;7.65;;;6.90;;
48263;SDS011;34086;51.076;13.722;2022-07-23T06:16:30;8.82;;;7.95;;
48263;SDS011;34086;51.076;13.722;2022-07-23T06:17:31;9.07;;;8.15;;
48263;SDS011;34086;51.076;13.722;2022-07-23T06:18:32;8.52;;;7.65;;